Terminal Aerodrome Forecast
Issued by NWS

Home | Current Version | Previous Version | Text Only | Print | Product List | Glossary On
Versions: 1 2 3 4 5 6 7 8 9 10 11 12 13 14 15 16 17 18 19 20 21 22 23 24 25 26 27 28 29 30 31 32
595
FTUS45 KPSR 281306 AAA
TAFIWA
TAF AMD
KIWA 281306Z 2813/2912 15008KT P6SM VCSH SCT070 BKN120 BKN250
     FM281600 15006KT P6SM BKN100 BKN250
     FM281900 24008KT P6SM SCT100 BKN250
     FM290200 14010G20KT P6SM FEW080 BKN100 BKN250
     FM290500 14010KT P6SM BKN100 BKN250
      AMD LTD TO CLD VIS AND WIND TIL 281300=

USA.gov is the U.S. government's official web portal to all federal, state and local government web resources and services.